Time;durP1;ratioP1;P1;durP2;ratioP2;P2;SDS_P1;SDS_P2;PMS_P1;PMS_P2;Temp;Humidity;BMP_temperature;BMP_pressure;BME280_temperature;BME280_humidity;BME280_pressure;Samples;Min_cycle;Max_cycle;Signal;HPM_P1;HPM_P2
2022/12/19 00:01:57;;;;;;;;;34.67;29.33;;;;;4.44;78.69;100341.78;5054926;28;45474;-76
2022/12/19 00:04:22;;;;;;;;;34.67;29.67;;;;;4.43;78.70;100339.16;5059759;28;45616;-75
2022/12/19 00:06:48;;;;;;;;;38.67;29.67;;;;;4.40;78.70;100342.63;5056039;28;45549;-75
2022/12/19 00:09:13;;;;;;;;;32.67;27.33;;;;;4.39;79.17;100333.06;5069482;28;45495;-75
2022/12/19 00:11:39;;;;;;;;;34.00;32.33;;;;;4.37;79.02;100337.41;5060967;28;45549;-75
2022/12/19 00:14:05;;;;;;;;;32.33;24.00;;;;;4.34;79.26;100333.94;5060399;28;45698;-75
2022/12/19 00:16:31;;;;;;;;;32.00;28.67;;;;;4.34;79.17;100334.81;5081514;27;47739;-75
2022/12/19 00:18:58;;;;;;;;;34.00;30.33;;;;;4.32;79.27;100307.81;5061355;28;45531;-75
2022/12/19 00:21:27;;;;;;;;;37.33;32.00;;;;;4.32;79.44;100322.59;5065419;28;45394;-75
2022/12/19 00:23:53;;;;;;;;;27.33;26.67;;;;;4.30;79.57;100327.81;5051834;28;45637;-75
2022/12/19 00:26:18;;;;;;;;;34.67;29.00;;;;;4.28;79.44;100319.09;5065413;28;45453;-75
2022/12/19 00:28:46;;;;;;;;;32.67;27.33;;;;;4.27;79.65;100314.75;5071253;28;45515;-75
2022/12/19 00:31:12;;;;;;;;;36.00;33.00;;;;;4.26;79.31;100325.16;5065619;27;45418;-75
2022/12/19 00:33:38;;;;;;;;;34.00;28.67;;;;;4.22;79.44;100337.31;5055874;28;45507;-75
2022/12/19 00:36:06;;;;;;;;;30.00;25.67;;;;;4.22;79.48;100327.75;5055692;28;45471;-75
2022/12/19 00:38:33;;;;;;;;;32.67;29.00;;;;;4.21;79.76;100327.75;5060331;28;45461;-75
2022/12/19 00:41:19;;;;;;;;;25.67;25.67;;;;;4.20;79.84;100326.00;5064136;28;45558;-75
2022/12/19 00:43:45;;;;;;;;;32.33;29.67;;;;;4.20;79.78;100320.78;5094779;27;45389;-75
2022/12/19 00:46:13;;;;;;;;;31.33;29.33;;;;;4.21;79.96;100306.88;5064817;28;46314;-74
2022/12/19 00:48:39;;;;;;;;;28.67;26.00;;;;;4.20;79.87;100307.72;5054845;28;45356;-75
2022/12/19 00:51:09;;;;;;;;;32.33;26.67;;;;;4.20;79.55;100305.13;5063202;28;45380;-75
2022/12/19 00:53:34;;;;;;;;;33.67;26.67;;;;;4.19;79.67;100292.94;5056335;28;45378;-75
2022/12/19 00:56:02;;;;;;;;;32.00;27.33;;;;;4.17;79.68;100292.97;5062359;28;45766;-75
2022/12/19 00:58:27;;;;;;;;;28.67;26.33;;;;;4.15;80.03;100307.75;5058532;28;45409;-75
2022/12/19 01:00:53;;;;;;;;;31.00;27.67;;;;;4.15;79.88;100301.66;5061868;28;45479;-75
2022/12/19 01:03:18;;;;;;;;;27.33;26.00;;;;;4.14;79.72;100315.56;5059482;28;45475;-75
2022/12/19 01:05:44;;;;;;;;;35.33;31.67;;;;;4.11;79.57;100300.75;5060718;28;47478;-75
2022/12/19 01:08:09;;;;;;;;;33.33;29.33;;;;;4.12;79.72;100304.22;5058221;28;45388;-75
2022/12/19 01:10:35;;;;;;;;;29.00;26.00;;;;;4.11;79.67;100300.75;5057960;28;45430;-75
2022/12/19 01:13:00;;;;;;;;;30.67;26.67;;;;;4.09;79.52;100289.44;5058278;28;45356;-75
2022/12/19 01:15:25;;;;;;;;;30.00;26.67;;;;;4.12;79.73;100284.22;5060225;28;45379;-75
2022/12/19 01:17:51;;;;;;;;;28.33;25.67;;;;;4.12;79.56;100285.97;5054737;28;45392;-75
2022/12/19 01:20:20;;;;;;;;;34.67;28.67;;;;;4.12;79.41;100278.13;5060224;28;45378;-75
2022/12/19 01:22:46;;;;;;;;;27.67;25.33;;;;;4.12;79.46;100271.19;5064909;28;45524;-74
2022/12/19 01:25:12;;;;;;;;;31.00;26.67;;;;;4.14;79.26;100276.41;5073228;28;46528;-75
2022/12/19 01:27:38;;;;;;;;;33.00;24.00;;;;;4.15;79.50;100270.34;5056451;28;45455;-75
2022/12/19 01:30:05;;;;;;;;;27.00;25.33;;;;;4.16;79.30;100259.91;5063511;28;45510;-75
2022/12/19 01:32:33;;;;;;;;;36.33;28.00;;;;;4.16;79.26;100272.94;5055578;28;45393;-75
2022/12/19 01:34:59;;;;;;;;;30.00;26.33;;;;;4.17;79.32;100307.75;5056328;28;46405;-75
2022/12/19 01:37:24;;;;;;;;;34.00;31.00;;;;;4.18;79.15;100267.75;5054742;28;45442;-74
2022/12/19 01:39:50;;;;;;;;;29.67;23.67;;;;;4.20;78.99;100281.63;5066209;28;45462;-74
2022/12/19 01:42:18;;;;;;;;;29.00;26.67;;;;;4.21;79.46;100272.94;5063290;28;45543;-75
2022/12/19 01:45:08;;;;;;;;;27.00;24.67;;;;;4.21;79.63;100278.16;5086658;27;47710;-74
2022/12/19 01:47:45;;;;;;;;;32.67;25.67;;;;;4.21;79.63;100263.38;5059808;28;45372;-75
2022/12/19 01:50:16;;;;;;;;;31.00;27.00;;;;;4.21;79.40;100278.16;5071142;27;45419;-75
2022/12/19 01:52:41;;;;;;;;;24.00;22.00;;;;;4.22;79.44;100266.84;5063314;28;45440;-74
2022/12/19 01:55:09;;;;;;;;;24.33;24.33;;;;;4.21;79.63;100278.16;5065453;28;47208;-75
2022/12/19 01:57:37;;;;;;;;;31.33;26.00;;;;;4.22;79.43;100277.31;5061650;28;45491;-75
2022/12/19 02:00:04;;;;;;;;;27.33;22.67;;;;;4.27;79.07;100283.41;5055300;28;45379;-75
2022/12/19 02:02:34;;;;;;;;;33.67;31.67;;;;;4.29;79.18;100273.88;5053632;28;45662;-75
2022/12/19 02:05:03;;;;;;;;;29.33;24.00;;;;;4.31;78.87;100284.31;5054392;28;47236;-75
2022/12/19 02:07:31;;;;;;;;;29.00;23.67;;;;;4.29;78.96;100250.38;5051578;28;45483;-75
2022/12/19 02:09:57;;;;;;;;;32.33;26.00;;;;;4.28;78.98;100277.34;5066388;28;45416;-75
2022/12/19 02:12:25;;;;;;;;;22.00;22.00;;;;;4.29;78.93;100252.09;5057355;28;45595;-75
2022/12/19 02:14:52;;;;;;;;;22.67;22.00;;;;;4.31;78.89;100250.38;5061855;28;46565;-75
2022/12/19 02:17:38;;;;;;;;;27.33;25.67;;;;;4.36;78.55;100259.06;5056699;28;45493;-75
2022/12/19 02:20:44;;;;;;;;;29.00;25.00;;;;;4.39;78.81;100257.34;5060607;28;45416;-75
2022/12/19 02:23:46;;;;;;;;;23.67;22.00;;;;;4.42;78.63;100262.59;5063902;28;45395;-75
2022/12/19 02:26:33;;;;;;;;;23.67;19.33;;;;;4.44;78.83;100242.56;5056572;28;45385;-75
2022/12/19 02:29:16;;;;;;;;;29.33;24.00;;;;;4.47;78.55;100254.78;5063991;28;45403;-75
2022/12/19 02:31:54;;;;;;;;;25.00;22.00;;;;;4.48;78.46;100230.41;5058838;28;45494;-76
2022/12/19 02:34:28;;;;;;;;;7.67;5.33;;;;;4.51;78.76;100248.69;5064324;27;45412;-75
2022/12/19 02:37:05;;;;;;;;;23.67;22.00;;;;;4.57;78.38;100243.47;5069868;27;47321;-75
2022/12/19 02:39:54;;;;;;;;;21.67;20.00;;;;;4.61;78.20;100233.91;5062115;28;45396;-75
2022/12/19 02:42:28;;;;;;;;;20.33;18.33;;;;;4.63;78.47;100243.50;5056858;28;45499;-75
2022/12/19 02:44:54;;;;;;;;;30.33;22.67;;;;;4.67;78.03;100244.38;5061955;28;45561;-75
2022/12/19 02:47:20;;;;;;;;;15.67;15.67;;;;;4.68;78.35;100220.88;5048006;28;46950;-75
2022/12/19 02:49:47;;;;;;;;;18.00;18.00;;;;;4.69;77.95;100247.88;5059976;28;45391;-75
2022/12/19 02:52:18;;;;;;;;;24.00;23.00;;;;;4.70;78.02;100249.59;5057428;28;45493;-75
2022/12/19 02:54:46;;;;;;;;;23.00;21.00;;;;;4.68;77.84;100248.72;5052633;28;45471;-75
2022/12/19 02:57:24;;;;;;;;;19.00;18.00;;;;;4.68;77.42;100231.31;5054542;28;46350;-75
2022/12/19 03:00:12;;;;;;;;;21.67;21.33;;;;;4.68;77.48;100254.84;5063582;28;45372;-75
2022/12/19 03:03:14;;;;;;;;;25.33;22.33;;;;;4.67;77.40;100231.31;5054299;28;45518;-75
2022/12/19 03:05:50;;;;;;;;;22.00;20.67;;;;;4.65;76.84;100231.31;5054430;28;45561;-75
2022/12/19 03:08:53;;;;;;;;;27.67;21.33;;;;;4.65;77.55;100220.00;5054547;28;45669;-75
2022/12/19 03:11:22;;;;;;;;;25.67;18.00;;;;;4.66;77.43;100251.34;5043367;28;45371;-75
2022/12/19 03:14:12;;;;;;;;;18.67;18.00;;;;;4.71;77.36;100249.59;5087517;27;45558;-75
2022/12/19 03:16:37;;;;;;;;;22.67;21.33;;;;;4.75;77.66;100258.31;5067607;27;45513;-75
2022/12/19 03:19:09;;;;;;;;;20.00;18.67;;;;;4.77;77.98;100261.78;5055491;28;46444;-75
2022/12/19 03:21:51;;;;;;;;;24.33;20.33;;;;;4.79;77.78;100252.22;5052300;28;45486;-75
2022/12/19 03:24:18;;;;;;;;;21.33;18.00;;;;;4.81;77.38;100247.88;5069428;28;45328;-75
2022/12/19 03:26:47;;;;;;;;;22.00;18.00;;;;;4.79;77.14;100263.53;5061996;28;45439;-75
2022/12/19 03:29:21;;;;;;;;;28.67;23.00;;;;;4.78;76.91;100242.63;5063894;28;45371;-75
2022/12/19 03:31:47;;;;;;;;;22.67;20.00;;;;;4.74;76.60;100287.91;5074196;27;45501;-75
2022/12/19 03:34:39;;;;;;;;;22.33;21.00;;;;;4.69;77.24;100261.78;5081595;27;45488;-75
2022/12/19 03:37:10;;;;;;;;;22.00;21.33;;;;;4.64;77.54;100271.34;5091884;27;45594;-75
2022/12/19 03:39:38;;;;;;;;;23.67;20.67;;;;;4.62;77.31;100280.91;5065646;28;45588;-75
2022/12/19 03:44:54;;;;;;;;;21.67;18.00;;;;;4.56;77.12;100273.06;5066371;28;45391;-75
2022/12/19 03:47:34;;;;;;;;;20.33;19.33;;;;;4.52;76.84;100268.72;5059809;28;45486;-76
2022/12/19 03:50:00;;;;;;;;;29.33;22.67;;;;;4.48;77.22;100286.13;5067256;28;46527;-75
2022/12/19 03:52:28;;;;;;;;;23.67;21.67;;;;;4.47;76.89;100273.91;5064077;28;45554;-75
2022/12/19 03:55:17;;;;;;;;;21.00;19.33;;;;;4.44;77.42;100267.81;5066634;28;45498;-75
2022/12/19 03:57:50;;;;;;;;;19.00;17.33;;;;;4.44;76.83;100275.66;5061314;28;45555;-75
2022/12/19 04:00:17;;;;;;;;;26.33;23.67;;;;;4.42;77.02;100269.53;5071273;27;45596;-74
2022/12/19 04:02:48;;;;;;;;;19.67;18.67;;;;;4.38;76.49;100255.59;5102132;27;45485;-74
2022/12/19 04:05:20;;;;;;;;;19.33;17.67;;;;;4.39;76.55;100274.75;5071761;27;45434;-75
2022/12/19 04:07:47;;;;;;;;;27.00;18.67;;;;;4.41;76.41;100258.22;5068382;28;45591;-75
2022/12/19 04:10:17;;;;;;;;;25.33;18.33;;;;;4.41;76.59;100253.00;5070287;28;46437;-75
2022/12/19 04:12:58;;;;;;;;;28.33;24.67;;;;;4.40;75.95;100259.09;5065781;28;45479;-76
2022/12/19 04:15:34;;;;;;;;;23.67;18.00;;;;;4.38;76.24;100289.53;5066256;28;45435;-74
2022/12/19 04:18:04;;;;;;;;;17.67;14.67;;;;;4.39;76.48;100251.25;5070196;28;45353;-75
2022/12/19 04:20:31;;;;;;;;;24.00;19.33;;;;;4.40;76.03;100242.56;5047598;28;47668;-74
2022/12/19 04:23:00;;;;;;;;;22.33;19.00;;;;;4.41;76.19;100281.72;5066281;28;45495;-75
2022/12/19 04:25:36;;;;;;;;;21.00;17.00;;;;;4.43;76.56;100233.00;5083093;27;45491;-75
2022/12/19 04:28:06;;;;;;;;;17.00;16.00;;;;;4.46;76.66;100271.31;5065591;28;45517;-74
2022/12/19 04:30:32;;;;;;;;;23.67;17.33;;;;;4.52;76.23;100272.16;5067032;28;45650;-75
2022/12/19 04:32:59;;;;;;;;;20.00;17.67;;;;;4.59;76.11;100251.31;5062057;28;45481;-75
2022/12/19 04:35:25;;;;;;;;;17.00;14.33;;;;;4.64;76.07;100283.53;5060804;28;45443;-75
2022/12/19 04:37:51;;;;;;;;;18.00;15.33;;;;;4.67;75.50;100254.81;5073246;27;45530;-75
2022/12/19 04:40:17;;;;;;;;;16.33;14.67;;;;;4.69;75.60;100272.22;5055971;28;47368;-74
2022/12/19 04:42:42;;;;;;;;;7.67;5.67;;;;;4.71;75.57;100270.47;5055641;28;45408;-75
2022/12/19 04:45:08;;;;;;;;;16.00;14.00;;;;;4.73;75.32;100253.06;5058569;28;45420;-74
2022/12/19 04:47:33;;;;;;;;;21.67;19.33;;;;;4.74;75.67;100260.03;5061472;28;45483;-75
2022/12/19 04:49:59;;;;;;;;;22.33;19.00;;;;;4.70;75.35;100266.13;5056446;28;45520;-74
2022/12/19 04:52:24;;;;;;;;;31.67;22.67;;;;;4.68;75.41;100257.44;5056939;28;45484;-75
2022/12/19 04:54:50;;;;;;;;;21.33;17.33;;;;;4.68;75.41;100240.91;5057945;28;45495;-75
2022/12/19 04:57:15;;;;;;;;;25.00;18.33;;;;;4.69;75.29;100268.75;5057402;28;45363;-74
2022/12/19 04:59:40;;;;;;;;;27.00;21.33;;;;;4.69;74.99;100240.88;5053650;28;48307;-75
2022/12/19 05:02:06;;;;;;;;;17.33;16.67;;;;;4.70;75.56;100252.19;5058261;28;45454;-76
2022/12/19 05:04:31;;;;;;;;;23.00;20.33;;;;;4.68;75.42;100244.38;5046922;28;45481;-75
2022/12/19 05:06:57;;;;;;;;;19.67;18.00;;;;;4.67;75.38;100233.94;5052092;28;45586;-75
2022/12/19 05:09:22;;;;;;;;;20.33;13.67;;;;;4.65;75.02;100218.25;5058199;28;45696;-75
2022/12/19 05:11:48;;;;;;;;;18.00;13.00;;;;;4.65;76.17;100253.94;5053315;28;45329;-75
2022/12/19 05:14:14;;;;;;;;;19.33;19.33;;;;;4.69;75.51;100224.38;5058933;28;45397;-75
2022/12/19 05:16:40;;;;;;;;;18.00;14.00;;;;;4.70;75.63;100226.94;5060651;28;45713;-75
2022/12/19 05:19:06;;;;;;;;;20.33;17.00;;;;;4.73;75.70;100253.06;5070652;27;46735;-74
2022/12/19 05:21:31;;;;;;;;;18.00;17.00;;;;;4.74;75.13;100238.28;5047142;28;45428;-74
2022/12/19 05:23:56;;;;;;;;;19.00;17.00;;;;;4.75;75.02;100251.34;5058799;28;45298;-75
2022/12/19 05:26:22;;;;;;;;;17.33;17.00;;;;;4.76;74.96;100234.81;5059826;28;45548;-75
2022/12/19 05:28:47;;;;;;;;;16.00;16.00;;;;;4.75;74.95;100230.44;5057940;28;46294;-75
2022/12/19 05:31:18;;;;;;;;;17.33;17.33;;;;;4.73;75.20;100232.19;5057209;28;45488;-75
2022/12/19 05:33:45;;;;;;;;;25.67;17.67;;;;;4.72;75.17;100234.78;5054144;28;45531;-74
2022/12/19 05:36:11;;;;;;;;;21.67;20.00;;;;;4.67;75.22;100242.63;5054386;28;45514;-75
2022/12/19 05:38:36;;;;;;;;;17.67;16.00;;;;;4.65;75.10;100227.84;5054719;28;46148;-75
2022/12/19 05:41:10;;;;;;;;;16.33;16.33;;;;;4.65;75.27;100239.16;5054859;28;45502;-75
2022/12/19 05:43:36;;;;;;;;;19.33;17.00;;;;;4.64;75.19;100211.28;5047102;28;45450;-76
2022/12/19 05:46:03;;;;;;;;;19.00;18.00;;;;;4.61;74.94;100228.69;5054970;28;45702;-75
2022/12/19 05:48:28;;;;;;;;;20.00;16.33;;;;;4.59;75.08;100210.41;5055697;28;46447;-76
2022/12/19 05:50:54;;;;;;;;;17.00;16.00;;;;;4.57;75.33;100214.75;5053027;28;45550;-76
2022/12/19 05:53:19;;;;;;;;;15.33;13.67;;;;;4.56;75.61;100210.38;5054798;28;46064;-76
2022/12/19 05:55:45;;;;;;;;;16.00;12.33;;;;;4.59;75.71;100217.38;5054058;28;45487;-75
2022/12/19 05:58:10;;;;;;;;;17.00;15.00;;;;;4.61;75.45;100218.25;5054140;28;45971;-76
2022/12/19 06:00:36;;;;;;;;;16.67;16.00;;;;;4.62;75.67;100213.03;5053619;28;45467;-75
2022/12/19 06:03:02;;;;;;;;;16.67;14.33;;;;;4.65;75.40;100228.69;5046260;28;45473;-75
2022/12/19 06:05:27;;;;;;;;;17.67;13.00;;;;;4.69;75.04;100212.13;5061480;28;45460;-75
2022/12/19 06:07:53;;;;;;;;;16.00;16.00;;;;;4.70;74.77;100211.28;5053145;28;45926;-75
2022/12/19 06:10:18;;;;;;;;;15.33;13.33;;;;;4.71;74.66;100213.03;5061302;28;45479;-75
2022/12/19 06:12:44;;;;;;;;;17.33;15.33;;;;;4.71;75.12;100213.03;5056078;28;45426;-75
2022/12/19 06:15:09;;;;;;;;;17.00;16.33;;;;;4.71;74.68;100189.50;5056863;28;45639;-76
2022/12/19 06:17:35;;;;;;;;;15.67;14.67;;;;;4.72;74.62;100195.59;5053234;28;46630;-75
2022/12/19 06:20:00;;;;;;;;;18.33;14.67;;;;;4.74;74.53;100209.53;5094927;27;45521;-75
2022/12/19 06:22:26;;;;;;;;;18.00;13.00;;;;;4.77;74.49;100202.59;5053425;28;45380;-76
2022/12/19 06:24:51;;;;;;;;;17.67;14.67;;;;;4.79;74.29;100199.97;5062811;28;45503;-76
2022/12/19 06:27:19;;;;;;;;;12.33;10.33;;;;;4.81;74.45;100206.09;5052662;28;46964;-74
2022/12/19 06:29:45;;;;;;;;;16.33;15.00;;;;;4.81;74.52;100222.63;5062479;28;45538;-76
2022/12/19 06:32:10;;;;;;;;;20.33;16.67;;;;;4.83;74.16;100204.34;5054019;28;45457;-75
2022/12/19 06:34:36;;;;;;;;;18.00;15.00;;;;;4.84;74.34;100212.19;5054224;28;45469;-74
2022/12/19 06:37:01;;;;;;;;;15.33;15.33;;;;;4.85;74.29;100202.59;5051195;28;47394;-75
2022/12/19 06:39:26;;;;;;;;;14.33;12.67;;;;;4.93;74.57;100219.13;5065736;28;45463;-75
2022/12/19 06:44:36;;;;;;;;;14.00;13.00;;;;;5.00;74.21;100222.63;5060771;28;45514;-75
2022/12/19 06:47:01;;;;;;;;;14.33;12.33;;;;;5.06;74.28;100225.22;5060040;28;45486;-75
2022/12/19 06:49:27;;;;;;;;;15.33;13.67;;;;;5.11;73.69;100218.25;5062342;28;45484;-76
2022/12/19 06:51:52;;;;;;;;;15.33;14.00;;;;;5.15;73.29;100222.63;5052987;28;45419;-76
2022/12/19 06:54:18;;;;;;;;;14.00;14.00;;;;;5.17;73.60;100207.81;5062434;28;45607;-76
2022/12/19 06:56:43;;;;;;;;;13.00;13.00;;;;;5.24;74.22;100212.16;5049218;28;45425;-76
2022/12/19 06:59:12;;;;;;;;;14.33;12.67;;;;;5.36;73.80;100196.47;5057797;28;45480;-76
2022/12/19 07:01:57;;;;;;;;;14.33;12.00;;;;;5.44;74.27;100210.38;5052150;28;45443;-76
2022/12/19 07:04:50;;;;;;;;;9.00;8.00;;;;;5.52;74.61;100203.41;5054362;28;45432;-76
2022/12/19 07:07:16;;;;;;;;;11.33;11.33;;;;;5.65;74.22;100204.22;5042702;28;47125;-76
2022/12/19 07:09:41;;;;;;;;;16.00;11.33;;;;;5.76;73.85;100202.44;5066614;28;45412;-76
2022/12/19 07:12:07;;;;;;;;;14.00;12.33;;;;;5.86;74.31;100179.75;5063976;28;45598;-76
2022/12/19 07:14:32;;;;;;;;;12.00;8.67;;;;;5.94;73.94;100212.00;5062152;28;45476;-76
2022/12/19 07:17:01;;;;;;;;;13.67;9.67;;;;;6.08;74.02;100191.88;5058103;28;45505;-75
2022/12/19 07:19:27;;;;;;;;;8.50;5.00;;;;;6.32;75.69;100180.41;5052517;28;45486;-75
2022/12/19 07:21:55;;;;;;;;;4.25;4.25;;;;;6.64;75.63;100182.81;5060908;28;45476;-75
2022/12/19 07:24:21;;;;;;;;;8.00;4.00;;;;;6.99;75.79;100158.94;5050295;28;45490;-76
2022/12/19 07:26:46;;;;;;;;;7.00;4.75;;;;;7.41;75.01;100172.50;5059124;28;46719;-75
2022/12/19 07:29:12;;;;;;;;;4.00;4.00;;;;;7.70;74.65;100189.69;5058966;28;45400;-75
2022/12/19 07:31:38;;;;;;;;;3.50;3.25;;;;;7.98;73.07;100171.84;5055426;28;45580;-77
2022/12/19 07:34:03;;;;;;;;;7.75;7.75;;;;;8.21;72.65;100154.94;5051759;28;45461;-74
2022/12/19 07:36:31;;;;;;;;;6.75;6.75;;;;;8.35;71.81;100192.41;5052236;28;45431;-76
2022/12/19 07:38:57;;;;;;;;;8.00;8.00;;;;;8.44;69.77;100194.03;5052623;28;45491;-76
2022/12/19 07:41:22;;;;;;;;;11.50;9.50;;;;;8.45;69.40;100187.88;5052980;28;45396;-76
2022/12/19 07:43:47;;;;;;;;;11.00;7.25;;;;;8.43;69.62;100201.03;5052579;28;45467;-76
2022/12/19 07:46:13;;;;;;;;;12.50;8.25;;;;;8.46;69.70;100173.84;5053161;28;45740;-76
2022/12/19 07:48:38;;;;;;;;;13.00;11.75;;;;;8.48;68.72;100188.72;5056468;28;45447;-76
2022/12/19 07:51:04;;;;;;;;;11.75;10.50;;;;;8.44;67.75;100192.25;5056048;28;45519;-76
2022/12/19 07:53:30;;;;;;;;;3.25;3.25;;;;;8.44;68.87;100201.91;5057668;28;45341;-77
2022/12/19 07:55:56;;;;;;;;;14.25;11.25;;;;;8.48;68.68;100203.59;5052909;28;46720;-75
2022/12/19 07:58:21;;;;;;;;;11.00;9.75;;;;;8.46;68.57;100194.88;5058689;28;45402;-77
2022/12/19 08:00:57;;;;;;;;;5.50;4.50;;;;;8.50;69.49;100218.47;5058189;28;45469;-77
2022/12/19 08:03:23;;;;;;;;;7.50;7.00;;;;;8.57;68.36;100221.84;5085198;27;45584;-76
2022/12/19 08:05:49;;;;;;;;;9.75;9.75;;;;;8.59;67.72;100223.56;5052671;28;45666;-76
2022/12/19 08:08:15;;;;;;;;;9.00;8.75;;;;;8.57;67.40;100211.34;5051863;28;45352;-77
2022/12/19 08:10:40;;;;;;;;;5.50;5.25;;;;;8.62;68.85;100217.41;5044410;28;45543;-76
2022/12/19 08:13:06;;;;;;;;;2.75;2.00;;;;;8.87;69.78;100213.53;5044145;28;45571;-76
2022/12/19 08:15:32;;;;;;;;;4.25;4.25;;;;;9.20;69.51;100217.38;5041171;28;46344;-76
2022/12/19 08:17:57;;;;;;;;;3.25;2.75;;;;;9.43;68.16;100232.75;5049002;28;45455;-76
2022/12/19 08:20:22;;;;;;;;;8.25;8.00;;;;;9.51;67.74;100230.00;5074998;27;45994;-76
2022/12/19 08:22:48;;;;;;;;;8.25;8.25;;;;;9.55;68.53;100229.88;5039311;28;45402;-76
2022/12/19 08:25:13;;;;;;;;;10.50;8.25;;;;;9.59;66.59;100235.97;5054270;28;46270;-77
2022/12/19 08:27:40;;;;;;;;;9.25;8.00;;;;;9.60;66.02;100225.41;5055114;28;45421;-76
2022/12/19 08:30:06;;;;;;;;;10.50;9.00;;;;;9.59;65.86;100239.47;5058200;28;45624;-76
2022/12/19 08:32:34;;;;;;;;;5.00;4.00;;;;;9.55;66.54;100229.06;5051706;28;45322;-76
2022/12/19 08:34:59;;;;;;;;;4.75;4.75;;;;;9.57;66.13;100246.53;5056768;28;46537;-76
2022/12/19 08:37:25;;;;;;;;;5.50;5.00;;;;;9.59;66.53;100242.09;5055859;28;45507;-76
2022/12/19 08:39:50;;;;;;;;;7.25;6.00;;;;;9.63;66.04;100241.16;5057283;28;45514;-77
2022/12/19 08:42:15;;;;;;;;;6.75;5.00;;;;;9.69;66.68;100248.97;5053029;28;45468;-76
2022/12/19 08:44:41;;;;;;;;;6.00;6.00;;;;;9.75;65.19;100238.28;5058488;28;45506;-77
2022/12/19 08:47:06;;;;;;;;;10.00;8.50;;;;;9.78;65.58;100248.78;5054634;28;45422;-77
2022/12/19 08:49:32;;;;;;;;;2.00;2.00;;;;;9.77;65.45;100239.13;5058118;28;45431;-77
2022/12/19 08:51:57;;;;;;;;;6.25;6.00;;;;;9.82;65.16;100249.59;5055817;28;45438;-74
2022/12/19 08:54:23;;;;;;;;;7.25;6.25;;;;;9.85;64.55;100246.03;5089287;27;48202;-76
2022/12/19 08:56:48;;;;;;;;;9.50;9.50;;;;;9.78;63.90;100242.63;5055803;28;45429;-77
2022/12/19 08:59:14;;;;;;;;;11.50;10.00;;;;;9.79;63.73;100252.28;5056016;28;45952;-76
2022/12/19 09:01:40;;;;;;;;;11.25;8.75;;;;;9.75;63.55;100245.31;5051656;28;45694;-76
2022/12/19 09:04:05;;;;;;;;;14.00;11.75;;;;;9.72;63.30;100240.09;5053487;28;45527;-75
2022/12/19 09:06:30;;;;;;;;;15.25;12.50;;;;;9.61;61.99;100258.75;5054194;28;45357;-76
2022/12/19 09:08:56;;;;;;;;;11.50;10.50;;;;;9.49;62.42;100244.94;5050714;28;45329;-76
2022/12/19 09:11:21;;;;;;;;;13.00;12.00;;;;;9.35;63.20;100238.16;5045984;28;45606;-76
2022/12/19 09:13:48;;;;;;;;;13.25;11.75;;;;;9.30;62.79;100247.03;5086610;27;46915;-76
2022/12/19 09:16:20;;;;;;;;;13.00;12.50;;;;;9.26;63.48;100243.56;5067590;28;45523;-76
2022/12/19 09:18:51;;;;;;;;;11.75;11.75;;;;;9.27;63.48;100242.69;5050244;28;45266;-76
2022/12/19 09:21:18;;;;;;;;;10.50;10.50;;;;;9.28;63.46;100244.41;5053307;28;45552;-77
2022/12/19 09:23:49;;;;;;;;;10.00;9.50;;;;;9.29;63.56;100253.19;5053466;28;45371;-76
2022/12/19 09:26:14;;;;;;;;;14.00;12.75;;;;;9.26;63.24;100254.09;5054517;28;45474;-75
2022/12/19 09:28:40;;;;;;;;;14.50;11.75;;;;;9.25;64.03;100244.47;5054130;28;45404;-77
2022/12/19 09:31:10;;;;;;;;;10.25;9.75;;;;;9.22;63.33;100252.41;5054090;28;45577;-77
2022/12/19 09:33:36;;;;;;;;;14.00;13.50;;;;;9.23;63.66;100251.50;5052235;28;46901;-77
2022/12/19 09:36:03;;;;;;;;;11.00;10.50;;;;;9.27;63.58;100245.31;5053268;28;45355;-77
2022/12/19 09:38:30;;;;;;;;;15.25;12.25;;;;;9.33;63.49;100263.63;5053226;28;45738;-76
2022/12/19 09:41:20;;;;;;;;;17.75;16.50;;;;;9.37;63.40;100260.06;5051750;28;45625;-77
2022/12/19 09:44:10;;;;;;;;;15.25;13.25;;;;;9.43;63.23;100266.97;5051394;28;47348;-75
2022/12/19 09:46:50;;;;;;;;;12.00;11.50;;;;;9.53;64.02;100252.78;5053554;28;45475;-77
2022/12/19 09:49:20;;;;;;;;;15.00;13.75;;;;;9.61;63.81;100265.78;5052191;28;45352;-76
2022/12/19 09:51:58;;;;;;;;;12.00;10.00;;;;;9.70;63.78;100257.72;5052684;28;45503;-76
2022/12/19 09:54:37;;;;;;;;;16.00;13.75;;;;;9.80;63.38;100262.78;5050910;28;46169;-76
2022/12/19 09:57:13;;;;;;;;;12.00;12.00;;;;;9.89;63.20;100256.47;5051978;28;45416;-76
2022/12/19 09:59:45;;;;;;;;;14.00;13.00;;;;;9.99;63.68;100258.03;5040710;28;45511;-77
2022/12/19 10:02:35;;;;;;;;;15.50;13.00;;;;;10.14;63.17;100257.72;5051847;28;45370;-76
2022/12/19 10:05:10;;;;;;;;;13.25;12.00;;;;;10.27;62.90;100254.88;5051879;28;46391;-77
2022/12/19 10:07:36;;;;;;;;;4.25;4.25;;;;;10.42;63.63;100255.41;5051473;28;45592;-77
2022/12/19 10:10:02;;;;;;;;;9.00;8.00;;;;;10.69;63.07;100251.31;5052990;28;45515;-77
2022/12/19 10:12:36;;;;;;;;;10.50;9.75;;;;;10.97;62.23;100261.22;5052741;27;45380;-76
2022/12/19 10:15:14;;;;;;;;;12.75;10.00;;;;;11.10;61.47;100262.66;5051628;28;46485;-76
2022/12/19 10:18:01;;;;;;;;;6.75;6.75;;;;;11.17;61.31;100262.50;5053095;28;45433;-76
2022/12/19 10:20:32;;;;;;;;;5.75;4.50;;;;;11.33;60.42;100247.16;5052980;28;45480;-77
2022/12/19 10:23:13;;;;;;;;;4.25;2.75;;;;;11.68;62.30;100240.09;5052343;28;45380;-77
2022/12/19 10:25:48;;;;;;;;;3.00;2.00;;;;;11.99;61.46;100242.78;5051601;28;45609;-76
2022/12/19 10:28:51;;;;;;;;;3.00;3.00;;;;;12.30;60.41;100242.78;5053255;28;45450;-77
2022/12/19 10:31:26;;;;;;;;;4.50;4.00;;;;;12.59;60.50;100232.19;5052321;28;45429;-76
2022/12/19 10:34:27;;;;;;;;;7.25;7.25;;;;;12.80;59.41;100215.66;5053292;28;45521;-75
2022/12/19 10:37:00;;;;;;;;;5.00;3.00;;;;;12.98;58.06;100229.22;5051256;28;47965;-76
2022/12/19 10:39:34;;;;;;;;;7.60;7.00;;;;;13.10;60.97;100219.09;5052855;28;45428;-76
2022/12/19 10:42:14;;;;;;;;;7.75;6.75;;;;;13.19;60.08;100229.44;5052097;28;45535;-76
2022/12/19 10:44:44;;;;;;;;;7.50;7.00;;;;;13.28;58.25;100204.41;5053187;28;45511;-78
2022/12/19 10:47:16;;;;;;;;;5.40;5.40;;;;;13.39;58.01;100212.00;5052169;28;45549;-77
2022/12/19 10:49:41;;;;;;;;;2.00;2.00;;;;;13.53;57.11;100207.97;5053348;28;45489;-77
2022/12/19 10:52:10;;;;;;;;;4.00;3.00;;;;;13.72;56.63;100208.19;5051924;28;45658;-77
2022/12/19 10:54:42;;;;;;;;;3.00;3.00;;;;;13.87;56.88;100202.34;5052107;28;45538;-76
2022/12/19 10:57:29;;;;;;;;;3.60;2.60;;;;;14.04;57.44;100212.31;5051229;28;45410;-76
2022/12/19 11:00:04;;;;;;;;;7.00;5.00;;;;;14.14;56.04;100195.13;5053087;28;45536;-76
2022/12/19 11:02:38;;;;;;;;;7.75;5.75;;;;;14.22;56.06;100198.38;5052808;28;45469;-76
2022/12/19 11:05:29;;;;;;;;;2.80;1.60;;;;;14.36;55.45;100195.19;5052653;28;45529;-77
2022/12/19 11:08:17;;;;;;;;;2.20;2.20;;;;;14.49;57.51;100192.97;5033861;28;45514;-76
2022/12/19 11:10:45;;;;;;;;;3.60;2.40;;;;;14.57;55.10;100196.19;5053214;28;45435;-76
2022/12/19 11:13:20;;;;;;;;;2.80;2.80;;;;;14.68;54.21;100188.66;5052446;28;45492;-76
2022/12/19 11:15:51;;;;;;;;;1.20;1.00;;;;;14.78;54.46;100208.59;5052071;28;45515;-76
2022/12/19 11:18:16;;;;;;;;;1.80;1.80;;;;;14.91;54.07;100201.03;5052464;28;46602;-78
2022/12/19 11:20:54;;;;;;;;;2.75;2.75;;;;;15.06;54.70;100184.47;5051893;28;45445;-76
2022/12/19 11:23:23;;;;;;;;;0.60;0.60;;;;;15.20;54.11;100202.47;5051053;28;45526;-76
2022/12/19 11:26:25;;;;;;;;;0.00;0.00;;;;;15.37;53.81;100194.66;5052397;28;45440;-77
2022/12/19 11:28:51;;;;;;;;;0.00;0.00;;;;;15.51;52.19;100189.63;5050206;28;47209;-77
2022/12/19 11:31:24;;;;;;;;;0.50;0.50;;;;;15.64;52.79;100193.50;5050732;28;45526;-76
2022/12/19 11:33:54;;;;;;;;;0.00;0.00;;;;;15.76;53.81;100191.22;5048886;28;45530;-76
2022/12/19 11:36:52;;;;;;;;;2.00;0.60;;;;;15.86;54.40;100195.22;5049279;28;45636;-76
2022/12/19 11:39:24;;;;;;;;;0.00;0.00;;;;;15.93;51.14;100184.22;5046812;28;46228;-77